createdAt,value
2019-02-08T00:00:49.473Z,126.30
2019-02-08T00:03:18.792Z,120.63
2019-02-08T00:05:48.880Z,123.60
2019-02-08T00:08:18.529Z,122.20
2019-02-08T00:10:48.030Z,119.20
2019-02-08T00:13:17.333Z,120.27
2019-02-08T00:15:46.684Z,128.77
2019-02-08T00:18:15.993Z,126.83
2019-02-08T00:20:45.412Z,124.27
2019-02-08T00:23:26.021Z,127.33
2019-02-08T00:25:45.693Z,130.40
2019-02-08T00:28:14.998Z,123.60
2019-02-08T00:30:44.421Z,125.27
2019-02-08T00:33:13.796Z,122.90
2019-02-08T00:35:43.145Z,120.00
2019-02-08T00:38:12.461Z,113.50
2019-02-08T00:40:42.102Z,131.17
2019-02-08T00:43:11.971Z,128.43
2019-02-08T00:45:41.328Z,119.27
2019-02-08T00:48:10.657Z,119.10
2019-02-08T00:50:40.009Z,123.17
2019-02-08T00:53:09.321Z,126.40
2019-02-08T00:55:39.168Z,123.17
2019-02-08T00:58:08.484Z,127.07
2019-02-08T01:00:37.821Z,131.77
2019-02-08T01:03:07.176Z,121.23
2019-02-08T01:05:36.489Z,102.57
2019-02-08T01:08:05.829Z,126.47
2019-02-08T01:10:35.153Z,125.93
2019-02-08T01:13:05.080Z,134.47
2019-02-08T01:15:34.389Z,128.50
2019-02-08T01:18:03.835Z,130.13
2019-02-08T01:20:33.324Z,125.40
2019-02-08T01:23:02.676Z,130.77
2019-02-08T01:25:33.361Z,125.07
2019-02-08T01:28:02.715Z,130.03
2019-02-08T01:30:33.564Z,131.07
2019-02-08T01:33:03.053Z,126.77
2019-02-08T01:35:33.645Z,126.97
2019-02-08T01:38:03.001Z,139.43
2019-02-08T01:40:37.163Z,125.20
2019-02-08T01:43:07.764Z,128.27
2019-02-08T01:45:37.050Z,138.80
2019-02-08T01:48:07.834Z,137.57
2019-02-08T01:50:37.150Z,132.27
2019-02-08T01:53:07.664Z,141.20
2019-02-08T01:55:36.977Z,136.80
2019-02-08T01:58:06.329Z,140.60
2019-02-08T02:00:40.345Z,131.27
2019-02-08T02:03:10.526Z,135.83
2019-02-08T02:05:39.835Z,131.83
2019-02-08T02:08:09.184Z,139.33
2019-02-08T02:10:40.633Z,130.63
2019-02-08T02:13:10.257Z,127.87
2019-02-08T02:15:39.574Z,126.47
2019-02-08T02:18:09.266Z,143.30
2019-02-08T02:20:40.588Z,138.67
2019-02-08T02:23:11.167Z,137.13
2019-02-08T02:25:40.476Z,132.87
2019-02-08T02:28:09.826Z,137.97
2019-02-08T02:30:39.133Z,120.93
2019-02-08T02:33:10.729Z,138.33
2019-02-08T02:35:40.050Z,142.20
2019-02-08T02:38:10.467Z,136.67
2019-02-08T02:40:40.340Z,135.97
2019-02-08T02:43:09.704Z,128.47
2019-02-08T02:45:40.577Z,130.93
2019-02-08T02:48:11.675Z,136.50
2019-02-08T02:50:41.054Z,143.70
2019-02-08T02:53:10.435Z,133.80
2019-02-08T02:55:39.741Z,139.77
2019-02-08T02:58:09.100Z,131.87
2019-02-08T03:00:46.081Z,135.10
2019-02-08T03:03:15.662Z,126.00
2019-02-08T03:05:45.040Z,123.60
2019-02-08T03:08:15.032Z,134.90
2019-02-08T03:10:44.331Z,129.37
2019-02-08T03:13:13.857Z,132.40
2019-02-08T03:15:43.153Z,135.57
2019-02-08T03:18:12.492Z,138.63
2019-02-08T03:20:41.801Z,126.83
2019-02-08T03:23:11.149Z,129.73
2019-02-08T03:25:40.519Z,138.33
2019-02-08T03:28:09.892Z,127.43
2019-02-08T03:30:40.809Z,128.90
2019-02-08T03:33:10.150Z,119.50
2019-02-08T03:35:39.456Z,122.50
2019-02-08T03:38:08.804Z,125.83
2019-02-08T03:40:38.147Z,119.43
2019-02-08T03:43:08.374Z,122.53
2019-02-08T03:45:39.421Z,126.27
2019-02-08T03:48:09.108Z,132.50
2019-02-08T03:50:38.434Z,120.80
2019-02-08T03:53:08.303Z,122.07
2019-02-08T03:55:38.771Z,114.23
2019-02-08T03:58:08.452Z,124.23
2019-02-08T04:00:48.313Z,114.60
2019-02-08T04:03:17.653Z,115.83
2019-02-08T04:05:46.973Z,115.90
2019-02-08T04:08:16.337Z,113.00
2019-02-08T04:10:45.704Z,112.07
2019-02-08T04:13:15.068Z,123.27
2019-02-08T04:15:44.364Z,121.43
2019-02-08T04:18:18.576Z,119.33
2019-02-08T04:20:48.598Z,114.03
2019-02-08T04:23:17.938Z,113.53
2019-02-08T04:25:47.245Z,110.73
2019-02-08T04:28:16.597Z,107.97
2019-02-08T04:30:45.907Z,115.83
2019-02-08T04:33:15.246Z,115.63
2019-02-08T04:35:44.603Z,119.23
2019-02-08T04:38:13.907Z,130.30
2019-02-08T04:40:43.253Z,129.87
2019-02-08T04:43:12.578Z,104.70
2019-02-08T04:45:41.917Z,105.13
2019-02-08T04:48:11.219Z,117.40
2019-02-08T04:50:40.564Z,114.37
2019-02-08T04:53:09.871Z,113.17
2019-02-08T04:55:39.229Z,111.87
2019-02-08T04:58:08.529Z,113.00
2019-02-08T05:00:41.149Z,128.10
2019-02-08T05:03:11.216Z,119.03
2019-02-08T05:05:40.564Z,116.33
2019-02-08T05:08:09.870Z,120.53
2019-02-08T05:10:39.220Z,127.47
2019-02-08T05:13:08.524Z,126.37
2019-02-08T05:15:37.872Z,121.87
2019-02-08T05:18:07.181Z,113.07
2019-02-08T05:20:36.532Z,112.63
2019-02-08T05:23:05.837Z,113.17
2019-02-08T05:25:35.248Z,118.67
2019-02-08T05:28:04.629Z,122.60
2019-02-08T05:30:36.482Z,121.97
2019-02-08T05:33:06.040Z,113.63
2019-02-08T05:35:35.640Z,116.57
2019-02-08T05:38:05.016Z,123.80
2019-02-08T05:40:34.359Z,124.47
2019-02-08T05:43:03.670Z,113.70
2019-02-08T05:45:33.014Z,119.03
2019-02-08T05:48:02.325Z,131.70
2019-02-08T05:50:31.677Z,139.77
2019-02-08T05:53:00.984Z,121.43
2019-02-08T05:55:31.577Z,144.03
2019-02-08T05:58:00.884Z,132.43
2019-02-08T06:00:43.516Z,131.13
2019-02-08T06:03:12.834Z,134.03
2019-02-08T06:05:42.242Z,122.90
2019-02-08T06:08:11.556Z,129.13
2019-02-08T06:10:40.901Z,131.27
2019-02-08T06:13:10.200Z,130.17
2019-02-08T06:15:39.621Z,127.23
2019-02-08T06:18:09.766Z,124.73
2019-02-08T06:20:39.273Z,119.53
2019-02-08T06:23:08.618Z,116.97
2019-02-08T06:25:37.928Z,117.60
2019-02-08T06:28:07.255Z,114.67
2019-02-08T06:30:36.694Z,116.47
2019-02-08T06:33:06.140Z,114.67
2019-02-08T06:35:35.509Z,130.00
2019-02-08T06:38:05.681Z,104.57
2019-02-08T06:40:38.277Z,118.87
2019-02-08T06:43:08.656Z,113.77
2019-02-08T06:45:38.005Z,112.27
2019-02-08T06:48:08.749Z,105.57
2019-02-08T06:50:38.104Z,110.43
2019-02-08T06:53:07.404Z,107.97
2019-02-08T06:55:36.753Z,108.20
2019-02-08T06:58:11.189Z,103.37
2019-02-08T07:00:57.265Z,100.90
2019-02-08T07:03:43.241Z,86.37
2019-02-08T07:06:32.029Z,91.93
2019-02-08T07:09:11.648Z,87.37
2019-02-08T07:11:54.672Z,84.03
2019-02-08T07:14:28.359Z,87.70
2019-02-08T07:17:05.386Z,80.83
2019-02-08T07:19:36.332Z,114.73
2019-02-08T07:22:13.323Z,124.50
2019-02-08T07:24:44.273Z,192.03
2019-02-08T07:27:15.260Z,138.67
2019-02-08T07:29:46.206Z,73.23
2019-02-08T07:32:32.530Z,74.67
2019-02-08T07:35:06.299Z,69.90
2019-02-08T07:37:44.430Z,80.87
2019-02-08T07:40:32.705Z,74.93
2019-02-08T07:43:09.520Z,62.50
2019-02-08T07:46:00.984Z,60.93
2019-02-08T07:48:46.788Z,58.67
2019-02-08T07:51:20.289Z,52.03
2019-02-08T07:53:59.939Z,55.00
2019-02-08T07:56:46.916Z,54.63
2019-02-08T07:59:23.630Z,53.83
2019-02-08T08:01:54.568Z,52.13
2019-02-08T08:04:25.553Z,62.37
2019-02-08T08:07:05.573Z,55.20
2019-02-08T08:09:52.657Z,55.53
2019-02-08T08:12:23.600Z,44.73
2019-02-08T08:14:54.660Z,53.90
2019-02-08T08:17:28.322Z,59.17
2019-02-08T08:20:08.480Z,58.73
2019-02-08T08:22:57.614Z,46.90
2019-02-08T08:25:43.641Z,50.43
2019-02-08T08:28:17.464Z,46.27
2019-02-08T08:30:48.450Z,47.10
2019-02-08T08:33:41.724Z,46.77
2019-02-08T08:36:17.244Z,47.83
2019-02-08T08:38:58.434Z,46.90
2019-02-08T08:41:45.982Z,48.97
2019-02-08T08:44:36.613Z,41.33
2019-02-08T08:47:39.139Z,46.83
2019-02-08T08:50:28.202Z,53.33
2019-02-08T08:53:03.481Z,64.40
2019-02-08T08:56:08.857Z,47.37
2019-02-08T08:58:56.128Z,44.87
2019-02-08T09:01:43.703Z,48.90
2019-02-08T09:04:28.133Z,39.40
2019-02-08T09:07:16.573Z,44.23
2019-02-08T09:09:58.066Z,40.93
2019-02-08T09:12:51.393Z,45.73
2019-02-08T09:15:41.647Z,44.80
2019-02-08T09:18:19.976Z,38.00
2019-02-08T09:21:06.762Z,44.80
2019-02-08T09:24:04.693Z,47.63
2019-02-08T09:26:39.929Z,37.50
2019-02-08T09:29:29.073Z,43.83
2019-02-08T09:32:07.410Z,45.63
2019-02-08T09:35:12.914Z,43.73
2019-02-08T09:38:01.640Z,47.37
2019-02-08T09:40:56.802Z,53.90
2019-02-08T09:43:51.445Z,47.20
2019-02-08T09:46:44.690Z,44.23
2019-02-08T09:49:38.312Z,46.70
2019-02-08T09:52:42.161Z,41.47
2019-02-08T09:55:33.808Z,56.97
2019-02-08T09:58:25.445Z,54.37
2019-02-08T10:01:20.475Z,43.93
2019-02-08T10:03:53.041Z,45.07
2019-02-08T10:06:45.068Z,39.93
2019-02-08T10:09:17.628Z,43.50
2019-02-08T10:11:53.057Z,41.97
2019-02-08T10:14:37.236Z,47.87
2019-02-08T10:17:33.329Z,50.17
2019-02-08T10:20:34.148Z,42.73
2019-02-08T10:23:39.870Z,45.57
2019-02-08T10:26:45.549Z,41.17
2019-02-08T10:29:34.714Z,40.60
2019-02-08T10:32:23.780Z,40.10
2019-02-08T10:35:29.112Z,45.03
2019-02-08T10:38:17.449Z,47.97
2019-02-08T10:41:04.688Z,43.93
2019-02-08T10:43:45.928Z,41.90
2019-02-08T10:46:51.439Z,35.77
2019-02-08T10:49:49.445Z,42.97
2019-02-08T10:52:30.962Z,40.33
2019-02-08T10:55:19.848Z,41.70
2019-02-08T10:58:25.244Z,47.27
2019-02-08T11:01:29.405Z,45.07
2019-02-08T11:04:16.149Z,42.03
2019-02-08T11:07:03.630Z,52.37
2019-02-08T11:10:11.444Z,40.47
2019-02-08T11:13:00.213Z,46.03
2019-02-08T11:15:38.773Z,40.77
2019-02-08T11:18:39.973Z,43.43
2019-02-08T11:21:09.320Z,46.17
2019-02-08T11:23:38.634Z,38.97
2019-02-08T11:26:07.978Z,36.83
2019-02-08T11:28:37.294Z,42.93
2019-02-08T11:31:06.645Z,40.57
2019-02-08T11:33:35.957Z,45.20
2019-02-08T11:36:05.402Z,39.80
2019-02-08T11:38:34.717Z,36.13
2019-02-08T11:41:04.067Z,43.67
2019-02-08T11:43:33.417Z,41.07
2019-02-08T11:46:02.738Z,38.80
2019-02-08T11:48:32.139Z,39.00
2019-02-08T11:51:01.484Z,38.17
2019-02-08T11:53:30.833Z,42.73
2019-02-08T11:56:00.140Z,42.20
2019-02-08T11:58:29.500Z,36.50
2019-02-08T12:00:58.801Z,35.13
2019-02-08T12:03:28.478Z,41.90
2019-02-08T12:05:58.205Z,37.80
2019-02-08T12:08:27.541Z,35.63
2019-02-08T12:10:56.860Z,42.27
2019-02-08T12:13:26.198Z,43.97
2019-02-08T12:15:55.511Z,37.00
2019-02-08T12:18:24.856Z,39.57
2019-02-08T12:20:54.169Z,39.57
2019-02-08T12:23:23.521Z,44.30
2019-02-08T12:25:52.837Z,40.47
2019-02-08T12:28:22.193Z,43.03
2019-02-08T12:30:51.493Z,38.07
2019-02-08T12:33:20.863Z,49.30
2019-02-08T12:35:50.154Z,42.50
2019-02-08T12:38:19.508Z,41.87
2019-02-08T12:40:48.816Z,44.77
2019-02-08T12:43:18.168Z,41.97
2019-02-08T12:45:47.484Z,38.97
2019-02-08T12:48:16.838Z,39.10
2019-02-08T12:50:46.153Z,43.30
2019-02-08T12:53:15.568Z,39.50
2019-02-08T12:55:44.882Z,42.10
2019-02-08T12:58:14.274Z,44.27
2019-02-08T13:00:43.550Z,39.33
2019-02-08T13:03:12.897Z,42.17
2019-02-08T13:05:42.213Z,39.40
2019-02-08T13:08:11.561Z,41.23
2019-02-08T13:10:40.881Z,42.00
2019-02-08T13:13:10.232Z,39.30
2019-02-08T13:15:39.544Z,44.23
2019-02-08T13:18:08.889Z,48.10
2019-02-08T13:20:38.201Z,46.77
2019-02-08T13:23:07.618Z,53.43
2019-02-08T13:25:36.934Z,56.03
2019-02-08T13:28:06.377Z,57.23
2019-02-08T13:30:36.326Z,63.97
2019-02-08T13:33:05.673Z,60.23
2019-02-08T13:35:35.023Z,59.77
2019-02-08T13:38:04.369Z,69.90
2019-02-08T13:40:33.716Z,61.77
2019-02-08T13:43:03.036Z,63.33
2019-02-08T13:45:32.385Z,68.00
2019-02-08T13:48:01.722Z,69.10
2019-02-08T13:50:32.406Z,69.07
2019-02-08T13:53:01.722Z,63.83
2019-02-08T13:55:31.058Z,71.97
2019-02-08T13:58:00.364Z,65.57
2019-02-08T14:00:32.418Z,60.57
2019-02-08T14:03:01.718Z,58.40
2019-02-08T14:05:31.066Z,59.63
2019-02-08T14:08:00.373Z,61.83
2019-02-08T14:10:29.717Z,60.03
2019-02-08T14:12:59.032Z,54.73
2019-02-08T14:15:28.361Z,63.10
2019-02-08T14:17:57.667Z,57.20
2019-02-08T14:20:28.045Z,58.33
2019-02-08T14:22:58.450Z,53.70
2019-02-08T14:25:28.777Z,60.77
2019-02-08T14:27:58.091Z,64.27
2019-02-08T14:30:29.682Z,61.70
2019-02-08T14:32:59.014Z,61.60
2019-02-08T14:35:28.415Z,55.37
2019-02-08T14:37:58.987Z,61.33
2019-02-08T14:40:30.264Z,62.70
2019-02-08T14:42:59.553Z,55.30
2019-02-08T14:45:28.942Z,65.67
2019-02-08T14:47:58.252Z,60.47
2019-02-08T14:50:28.838Z,60.20
2019-02-08T14:52:58.377Z,63.30
2019-02-08T14:55:28.008Z,63.00
2019-02-08T14:57:59.641Z,63.37
2019-02-08T15:00:28.996Z,62.07
2019-02-08T15:02:58.298Z,61.50
2019-02-08T15:05:27.959Z,56.77
2019-02-08T15:07:57.670Z,67.00
2019-02-08T15:10:45.609Z,60.97
2019-02-08T15:13:14.908Z,53.50
2019-02-08T15:15:44.254Z,66.63
2019-02-08T15:18:13.553Z,57.57
2019-02-08T15:20:42.910Z,56.33
2019-02-08T15:23:12.209Z,59.53
2019-02-08T15:25:41.556Z,63.40
2019-02-08T15:28:11.821Z,73.63
2019-02-08T15:30:41.184Z,70.00
2019-02-08T15:33:10.488Z,75.87
2019-02-08T15:35:39.837Z,57.20
2019-02-08T15:38:09.137Z,73.00
2019-02-08T15:40:41.344Z,57.73
2019-02-08T15:43:11.885Z,63.03
2019-02-08T15:45:42.565Z,58.57
2019-02-08T15:48:11.862Z,60.60
2019-02-08T15:50:41.205Z,60.50
2019-02-08T15:53:10.497Z,62.67
2019-02-08T15:55:48.716Z,66.17
2019-02-08T15:58:18.035Z,74.33
2019-02-08T16:00:47.381Z,74.53
2019-02-08T16:03:16.689Z,67.90
2019-02-08T16:05:46.037Z,69.20
2019-02-08T16:08:15.342Z,63.40
2019-02-08T16:10:44.677Z,65.80
2019-02-08T16:13:13.977Z,74.00
2019-02-08T16:15:43.342Z,66.17
2019-02-08T16:18:12.696Z,71.90
2019-02-08T16:20:42.037Z,65.30
2019-02-08T16:23:11.341Z,67.33
2019-02-08T16:25:40.687Z,70.27
2019-02-08T16:28:09.988Z,73.13
2019-02-08T16:30:39.328Z,79.63
2019-02-08T16:33:09.173Z,73.57
2019-02-08T16:35:38.512Z,79.77
2019-02-08T16:38:07.817Z,72.07
2019-02-08T16:40:37.188Z,65.20
2019-02-08T16:43:06.833Z,74.80
2019-02-08T16:45:39.822Z,74.80
2019-02-08T16:48:13.089Z,77.97
2019-02-08T16:50:43.014Z,68.37
2019-02-08T16:53:12.756Z,79.57
2019-02-08T16:55:42.108Z,72.47
2019-02-08T16:58:12.882Z,78.17
2019-02-08T17:00:42.931Z,72.60
2019-02-08T17:03:13.626Z,79.57
2019-02-08T17:05:43.064Z,85.77
2019-02-08T17:08:12.410Z,76.90
2019-02-08T17:10:41.710Z,79.93
2019-02-08T17:13:12.701Z,77.23
2019-02-08T17:15:42.016Z,79.63
2019-02-08T17:18:12.923Z,75.83
2019-02-08T17:20:45.028Z,81.33
2019-02-08T17:23:14.389Z,73.93
2019-02-08T17:25:43.694Z,73.00
2019-02-08T17:28:14.205Z,86.93
2019-02-08T17:30:43.585Z,76.40
2019-02-08T17:33:12.928Z,75.80
2019-02-08T17:35:42.230Z,82.17
2019-02-08T17:38:11.565Z,82.80
2019-02-08T17:40:43.681Z,83.10
2019-02-08T17:43:13.023Z,87.73
2019-02-08T17:45:42.338Z,83.97
2019-02-08T17:48:15.884Z,82.60
2019-02-08T17:50:45.261Z,89.33
2019-02-08T17:53:14.686Z,96.13
2019-02-08T17:55:43.988Z,90.50
2019-02-08T17:58:13.329Z,87.87
2019-02-08T18:00:46.208Z,78.70
2019-02-08T18:03:15.556Z,87.30
2019-02-08T18:05:44.936Z,83.27
2019-02-08T18:08:14.279Z,86.10
2019-02-08T18:10:43.589Z,84.30
2019-02-08T18:13:13.697Z,88.20
2019-02-08T18:15:43.012Z,103.07
2019-02-08T18:18:15.564Z,84.97
2019-02-08T18:20:47.672Z,90.27
2019-02-08T18:23:18.919Z,93.43
2019-02-08T18:25:48.984Z,90.43
2019-02-08T18:28:18.356Z,91.10
2019-02-08T18:30:47.659Z,99.00
2019-02-08T18:33:17.080Z,87.40
2019-02-08T18:35:46.389Z,97.43
2019-02-08T18:38:15.810Z,88.87
2019-02-08T18:40:45.109Z,85.70
2019-02-08T18:43:14.471Z,89.57
2019-02-08T18:45:43.780Z,86.33
2019-02-08T18:48:13.117Z,88.37
2019-02-08T18:50:45.260Z,94.33
2019-02-08T18:53:14.606Z,89.97
2019-02-08T18:55:43.920Z,88.57
2019-02-08T18:58:18.718Z,93.40
2019-02-08T19:00:51.896Z,87.83
2019-02-08T19:03:22.300Z,79.10
2019-02-08T19:05:51.585Z,91.30
2019-02-08T19:08:20.930Z,83.47
2019-02-08T19:10:50.236Z,78.37
2019-02-08T19:13:19.656Z,79.10
2019-02-08T19:15:48.962Z,70.13
2019-02-08T19:18:18.314Z,83.57
2019-02-08T19:20:47.618Z,80.43
2019-02-08T19:23:16.969Z,78.87
2019-02-08T19:25:46.544Z,179.77
2019-02-08T19:28:15.900Z,82.80
2019-02-08T19:30:45.376Z,72.90
2019-02-08T19:33:14.720Z,91.37
2019-02-08T19:35:44.018Z,83.67
2019-02-08T19:38:13.360Z,73.93
2019-02-08T19:40:47.639Z,106.77
2019-02-08T19:43:17.009Z,105.60
2019-02-08T19:45:46.290Z,79.90
2019-02-08T19:48:15.590Z,77.20
2019-02-08T19:50:46.981Z,79.40
2019-02-08T19:53:16.286Z,74.60
2019-02-08T19:55:45.640Z,74.90
2019-02-08T19:58:16.581Z,76.53
2019-02-08T20:00:45.930Z,82.07
2019-02-08T20:03:15.232Z,78.73
2019-02-08T20:05:44.582Z,77.30
2019-02-08T20:08:14.858Z,88.13
2019-02-08T20:10:50.646Z,86.43
2019-02-08T20:13:22.552Z,82.60
2019-02-08T20:15:54.151Z,81.57
2019-02-08T20:18:23.454Z,89.40
2019-02-08T20:20:52.787Z,89.50
2019-02-08T20:23:22.084Z,98.40
2019-02-08T20:25:51.498Z,81.30
2019-02-08T20:28:22.033Z,94.27
2019-02-08T20:30:51.398Z,79.73
2019-02-08T20:33:20.753Z,78.93
2019-02-08T20:35:50.089Z,86.03
2019-02-08T20:38:19.465Z,88.90
2019-02-08T20:40:50.346Z,84.97
2019-02-08T20:43:19.644Z,86.83
2019-02-08T20:45:50.602Z,84.90
2019-02-08T20:48:21.544Z,81.87
2019-02-08T20:50:52.144Z,108.33
2019-02-08T20:53:22.722Z,81.10
2019-02-08T20:55:52.407Z,82.27
2019-02-08T20:58:21.839Z,96.27
2019-02-08T21:00:52.284Z,91.43
2019-02-08T21:03:21.589Z,90.53
2019-02-08T21:05:51.501Z,93.37
2019-02-08T21:08:20.800Z,88.87
2019-02-08T21:10:50.741Z,94.13
2019-02-08T21:13:23.378Z,91.07
2019-02-08T21:15:52.816Z,96.97
2019-02-08T21:18:22.123Z,94.37
2019-02-08T21:20:51.466Z,94.50
2019-02-08T21:23:20.774Z,95.67
2019-02-08T21:25:51.885Z,94.80
2019-02-08T21:28:21.042Z,88.97
2019-02-08T21:30:50.389Z,86.63
2019-02-08T21:33:21.315Z,89.30
2019-02-08T21:35:50.667Z,104.83
2019-02-08T21:38:20.030Z,99.83
2019-02-08T21:40:49.385Z,93.43
2019-02-08T21:43:18.688Z,99.97
2019-02-08T21:45:48.038Z,93.60
2019-02-08T21:48:17.352Z,99.97
2019-02-08T21:50:48.349Z,99.80
2019-02-08T21:53:17.693Z,110.80
2019-02-08T21:55:47.115Z,100.93
2019-02-08T21:58:16.412Z,98.70
2019-02-08T22:00:45.769Z,104.07
2019-02-08T22:03:15.165Z,106.23
2019-02-08T22:05:48.793Z,99.17
2019-02-08T22:08:19.553Z,108.23
2019-02-08T22:10:50.127Z,94.67
2019-02-08T22:13:20.005Z,105.77
2019-02-08T22:15:49.349Z,106.20
2019-02-08T22:18:20.332Z,105.70
2019-02-08T22:20:49.793Z,100.10
2019-02-08T22:23:19.121Z,97.57
2019-02-08T22:25:48.421Z,107.97
2019-02-08T22:28:17.773Z,90.30
2019-02-08T22:30:47.086Z,102.23
2019-02-08T22:33:16.424Z,90.87
2019-02-08T22:35:47.099Z,106.57
2019-02-08T22:38:16.449Z,93.10
2019-02-08T22:40:45.748Z,95.33
2019-02-08T22:43:15.087Z,93.97
2019-02-08T22:45:44.393Z,102.23
2019-02-08T22:48:14.823Z,90.80
2019-02-08T22:50:44.196Z,98.57
2019-02-08T22:53:13.567Z,99.43
2019-02-08T22:55:42.872Z,103.93
2019-02-08T22:58:12.215Z,93.87
2019-02-08T23:00:50.500Z,98.33
2019-02-08T23:03:20.220Z,97.17
2019-02-08T23:05:49.524Z,93.53
2019-02-08T23:08:19.068Z,96.37
2019-02-08T23:10:48.406Z,94.93
2019-02-08T23:13:17.821Z,100.63
2019-02-08T23:15:47.126Z,94.07
2019-02-08T23:18:16.544Z,101.00
2019-02-08T23:20:45.849Z,96.80
2019-02-08T23:23:15.190Z,82.30
2019-02-08T23:25:44.496Z,93.67
2019-02-08T23:28:13.839Z,99.90
2019-02-08T23:30:43.145Z,87.23
2019-02-08T23:33:12.487Z,97.90
2019-02-08T23:35:43.013Z,89.53
2019-02-08T23:38:14.012Z,94.60
2019-02-08T23:40:43.384Z,88.80
2019-02-08T23:43:12.728Z,89.30
2019-02-08T23:45:42.028Z,81.93
2019-02-08T23:48:11.375Z,86.30
2019-02-08T23:50:40.674Z,89.60
2019-02-08T23:53:10.027Z,84.53
2019-02-08T23:55:39.321Z,89.37
2019-02-08T23:58:08.665Z,87.07
